createdAt,value
2019-04-14T00:02:09.682Z,38.35
2019-04-14T00:06:15.916Z,37.85
2019-04-14T00:10:22.464Z,22.67
2019-04-14T00:14:27.244Z,42.65
2019-04-14T00:18:31.934Z,36.15
2019-04-14T00:22:36.630Z,24.27
2019-04-14T00:26:42.284Z,18.80
2019-04-14T00:30:47.107Z,21.15
2019-04-14T00:35:03.893Z,21.40
2019-04-14T00:39:20.479Z,21.97
2019-04-14T00:43:33.087Z,26.82
2019-04-14T00:47:52.007Z,22.20
2019-04-14T00:51:48.521Z,18.65
2019-04-14T00:55:53.421Z,21.60
2019-04-14T00:59:58.095Z,22.30
2019-04-14T01:04:03.460Z,30.20
2019-04-14T01:08:09.665Z,24.37
2019-04-14T01:12:14.946Z,20.02
2019-04-14T01:16:23.075Z,28.50
2019-04-14T01:20:27.434Z,29.15
2019-04-14T01:24:33.565Z,28.23
2019-04-14T01:28:39.636Z,24.40
2019-04-14T01:32:45.509Z,26.10
2019-04-14T01:36:50.397Z,28.85
2019-04-14T01:40:55.304Z,27.37
2019-04-14T01:45:01.379Z,27.27
2019-04-14T01:49:07.244Z,25.35
2019-04-14T01:53:27.472Z,29.42
2019-04-14T01:57:54.616Z,27.55
2019-04-14T02:02:00.767Z,24.30
2019-04-14T02:06:05.737Z,25.75
2019-04-14T02:10:10.896Z,29.63
2019-04-14T02:14:16.786Z,26.60
2019-04-14T02:18:22.829Z,22.98
2019-04-14T02:22:28.822Z,23.15
2019-04-14T02:26:35.044Z,23.57
2019-04-14T02:30:51.214Z,26.27
2019-04-14T02:35:15.089Z,25.23
2019-04-14T02:39:20.974Z,25.72
2019-04-14T02:43:29.587Z,26.73
2019-04-14T02:51:38.492Z,24.80
2019-04-14T02:55:54.760Z,23.05
2019-04-14T02:59:52.921Z,23.30
2019-04-14T03:03:56.785Z,23.75
2019-04-14T03:07:59.964Z,24.27
2019-04-14T03:12:09.479Z,23.47
2019-04-14T03:20:47.573Z,21.50
2019-04-14T03:24:55.399Z,30.35
2019-04-14T03:29:21.012Z,22.60
2019-04-14T03:33:48.312Z,25.08
2019-04-14T03:41:38.660Z,25.25
2019-04-14T03:46:04.825Z,24.77
2019-04-14T03:53:53.362Z,25.08
2019-04-14T03:57:39.026Z,26.00
2019-04-14T04:01:43.977Z,25.45
2019-04-14T04:05:49.966Z,25.23
2019-04-14T04:09:58.830Z,25.90
2019-04-14T04:14:03.696Z,28.15
2019-04-14T04:18:14.109Z,23.85
2019-04-14T04:22:36.961Z,23.65
2019-04-14T04:26:51.722Z,25.05
2019-04-14T04:31:02.409Z,23.77
2019-04-14T04:35:22.562Z,28.67
2019-04-14T04:39:33.772Z,26.82
2019-04-14T04:43:37.247Z,32.63
2019-04-14T04:47:42.647Z,30.50
2019-04-14T04:51:48.567Z,24.80
2019-04-14T04:55:54.648Z,28.02
2019-04-14T05:00:00.600Z,26.93
2019-04-14T05:04:06.947Z,25.77
2019-04-14T05:08:13.012Z,26.95
2019-04-14T05:12:37.343Z,26.75
2019-04-14T05:16:42.031Z,26.23
2019-04-14T05:20:51.049Z,26.20
2019-04-14T05:24:57.095Z,22.35
2019-04-14T05:29:02.085Z,28.23
2019-04-14T05:33:07.451Z,30.77
2019-04-14T05:37:12.269Z,27.82
2019-04-14T05:41:17.996Z,21.93
2019-04-14T05:45:23.999Z,19.75
2019-04-14T05:49:37.852Z,21.93
2019-04-14T05:53:35.314Z,24.82
2019-04-14T05:57:40.016Z,24.23
2019-04-14T06:01:44.721Z,18.60
2019-04-14T06:05:49.658Z,17.05
2019-04-14T06:09:54.234Z,22.93
2019-04-14T06:13:58.893Z,17.70
2019-04-14T06:18:03.749Z,18.07
2019-04-14T06:22:08.348Z,17.32
2019-04-14T06:26:13.111Z,19.65
2019-04-14T06:30:32.989Z,17.05
2019-04-14T06:34:55.556Z,15.25
2019-04-14T06:39:06.694Z,22.15
2019-04-14T06:43:11.752Z,19.07
2019-04-14T06:47:16.833Z,20.65
2019-04-14T06:51:21.753Z,21.00
2019-04-14T06:55:26.383Z,22.75
2019-04-14T06:59:31.398Z,22.75
2019-04-14T07:03:36.040Z,21.45
2019-04-14T07:07:40.692Z,21.65
2019-04-14T07:11:45.583Z,22.07
2019-04-14T07:15:57.070Z,23.15
2019-04-14T07:20:02.779Z,20.40
2019-04-14T07:24:07.392Z,23.90
2019-04-14T07:28:12.413Z,21.57
2019-04-14T07:32:36.884Z,22.30
2019-04-14T07:41:31.850Z,22.85
2019-04-14T07:45:53.712Z,24.10
2019-04-14T07:50:17.495Z,23.57
2019-04-14T07:54:30.477Z,27.45
2019-04-14T07:58:52.962Z,26.57
2019-04-14T08:03:02.227Z,23.15
2019-04-14T08:07:08.135Z,26.65
2019-04-14T08:11:12.866Z,28.60
2019-04-14T08:15:17.530Z,31.50
2019-04-14T08:19:22.214Z,32.70
2019-04-14T08:23:26.857Z,28.62
2019-04-14T08:27:31.501Z,35.68
2019-04-14T08:31:36.094Z,27.30
2019-04-14T08:35:45.270Z,26.62
2019-04-14T08:39:50.017Z,34.03
2019-04-14T08:44:15.232Z,30.72
2019-04-14T08:48:47.024Z,32.50
2019-04-14T08:53:02.732Z,31.80
2019-04-14T08:57:29.311Z,31.40
2019-04-14T09:01:55.850Z,27.20
2019-04-14T09:06:12.434Z,26.90
2019-04-14T09:10:28.242Z,24.63
2019-04-14T09:14:56.905Z,26.57
2019-04-14T09:19:07.072Z,29.00
2019-04-14T09:23:02.434Z,25.68
2019-04-14T09:27:07.143Z,27.55
2019-04-14T09:31:11.807Z,28.30
2019-04-14T09:35:35.565Z,26.95
2019-04-14T09:39:40.232Z,30.82
2019-04-14T09:43:44.874Z,27.00
2019-04-14T09:47:49.939Z,33.28
2019-04-14T09:51:57.084Z,31.00
2019-04-14T09:56:01.761Z,25.60
2019-04-14T10:00:08.029Z,26.55
2019-04-14T10:04:12.820Z,25.48
2019-04-14T10:08:18.713Z,25.82
2019-04-14T10:12:23.956Z,29.45
2019-04-14T10:16:29.181Z,33.33
2019-04-14T10:20:34.021Z,65.47
2019-04-14T10:24:39.029Z,55.50
2019-04-14T10:28:43.992Z,28.70
2019-04-14T10:32:48.733Z,52.65
2019-04-14T10:36:53.357Z,80.90
2019-04-14T10:40:58.067Z,51.25
2019-04-14T10:45:02.749Z,120.22
2019-04-14T10:49:07.327Z,43.75
2019-04-14T10:53:12.022Z,73.02
2019-04-14T10:57:16.849Z,54.30
2019-04-14T11:01:23.046Z,31.33
2019-04-14T11:05:34.861Z,24.70
2019-04-14T11:09:39.595Z,30.52
2019-04-14T11:13:44.276Z,26.17
2019-04-14T11:17:49.323Z,26.25
2019-04-14T11:21:54.358Z,33.42
2019-04-14T11:25:59.096Z,31.62
2019-04-14T11:30:04.907Z,24.50
2019-04-14T11:34:11.535Z,30.05
2019-04-14T11:38:29.088Z,24.37
2019-04-14T11:42:34.095Z,29.63
2019-04-14T11:46:39.296Z,25.17
2019-04-14T11:50:43.934Z,20.77
2019-04-14T11:54:49.977Z,21.17
2019-04-14T11:58:54.773Z,19.45
2019-04-14T12:03:10.505Z,21.73
2019-04-14T12:07:23.914Z,20.95
2019-04-14T12:11:28.783Z,27.57
2019-04-14T12:15:34.501Z,19.45
2019-04-14T12:19:39.785Z,28.65
2019-04-14T12:23:46.147Z,20.25
2019-04-14T12:27:51.560Z,27.90
2019-04-14T12:31:57.471Z,25.37
2019-04-14T12:36:08.339Z,22.25
2019-04-14T12:40:15.167Z,19.82
2019-04-14T12:44:40.476Z,19.40
2019-04-14T12:48:50.672Z,20.72
2019-04-14T12:52:56.896Z,20.25
2019-04-14T12:57:01.654Z,20.95
2019-04-14T13:01:10.680Z,20.90
2019-04-14T13:05:18.781Z,18.10
2019-04-14T13:09:26.137Z,21.40
2019-04-14T13:13:30.823Z,19.87
2019-04-14T13:17:35.763Z,18.77
2019-04-14T13:21:40.637Z,18.70
2019-04-14T13:25:45.547Z,17.52
2019-04-14T13:29:52.631Z,18.90
2019-04-14T13:33:57.429Z,18.25
2019-04-14T13:38:03.602Z,59.33
2019-04-14T13:42:08.345Z,34.23
2019-04-14T13:46:15.890Z,52.15
2019-04-14T13:50:20.648Z,28.62
2019-04-14T13:54:25.311Z,28.85
2019-04-14T13:58:30.318Z,32.67
2019-04-14T14:02:34.970Z,27.60
2019-04-14T14:06:39.604Z,15.32
2019-04-14T14:10:44.328Z,29.42
2019-04-14T14:15:00.835Z,27.50
2019-04-14T14:19:24.816Z,21.52
2019-04-14T14:23:48.808Z,20.72
2019-04-14T14:27:53.467Z,37.42
2019-04-14T14:31:58.787Z,23.73
2019-04-14T14:36:03.590Z,20.17
2019-04-14T14:40:09.558Z,22.80
2019-04-14T14:44:14.300Z,16.87
2019-04-14T14:48:26.052Z,16.87
2019-04-14T14:52:31.422Z,22.32
2019-04-14T14:56:36.458Z,18.62
2019-04-14T15:00:41.053Z,16.95
2019-04-14T15:04:45.834Z,18.17
2019-04-14T15:08:50.502Z,14.63
2019-04-14T15:12:55.374Z,18.20
2019-04-14T15:17:00.062Z,24.85
2019-04-14T15:21:04.960Z,16.02
2019-04-14T15:25:09.882Z,14.73
2019-04-14T15:29:14.510Z,16.42
2019-04-14T15:33:19.109Z,15.70
2019-04-14T15:37:23.818Z,12.68
2019-04-14T15:41:28.431Z,14.95
2019-04-14T15:45:33.438Z,16.15
2019-04-14T15:49:38.141Z,19.40
2019-04-14T15:53:43.061Z,16.30
2019-04-14T15:58:02.794Z,16.10
2019-04-14T16:02:19.273Z,17.02
2019-04-14T16:06:32.089Z,17.80
2019-04-14T16:11:14.483Z,16.70
2019-04-14T16:15:50.413Z,17.77
2019-04-14T16:19:59.829Z,18.23
2019-04-14T16:24:04.545Z,16.42
2019-04-14T16:28:20.617Z,20.85
2019-04-14T16:33:02.509Z,23.32
2019-04-14T16:37:08.274Z,28.23
2019-04-14T16:41:12.933Z,79.12
2019-04-14T16:45:20.787Z,116.70
2019-04-14T16:49:25.419Z,107.47
2019-04-14T16:53:33.274Z,123.10
2019-04-14T16:58:02.821Z,80.75
2019-04-14T17:02:11.152Z,118.10
2019-04-14T17:06:14.027Z,35.43
2019-04-14T17:10:18.707Z,141.82
2019-04-14T17:14:29.927Z,239.32
2019-04-14T17:18:54.444Z,39.25
2019-04-14T17:23:17.420Z,83.52
2019-04-14T17:27:41.163Z,154.12
2019-04-14T17:31:59.456Z,126.55
2019-04-14T17:36:20.906Z,27.10
2019-04-14T17:40:47.450Z,38.70
2019-04-14T17:45:14.919Z,63.17
2019-04-14T17:49:53.992Z,40.63
2019-04-14T17:54:04.022Z,32.28
2019-04-14T17:58:32.628Z,33.88
2019-04-14T18:02:59.417Z,40.25
2019-04-14T18:07:35.138Z,50.35
2019-04-14T18:11:57.694Z,204.90
2019-04-14T18:16:24.961Z,148.20
2019-04-14T18:20:33.095Z,20.25
2019-04-14T18:24:42.627Z,56.92
2019-04-14T18:28:54.299Z,46.53
2019-04-14T18:33:04.887Z,103.78
2019-04-14T18:37:19.399Z,19.73
2019-04-14T18:41:40.667Z,83.30
2019-04-14T18:45:54.343Z,90.28
2019-04-14T18:50:17.460Z,42.65
2019-04-14T18:54:28.853Z,59.30
2019-04-14T18:58:55.801Z,143.93
2019-04-14T19:03:00.572Z,148.55
2019-04-14T19:07:05.431Z,67.42
2019-04-14T19:11:38.314Z,58.65
2019-04-14T19:15:55.094Z,162.85
2019-04-14T19:20:01.667Z,65.80
2019-04-14T19:24:06.689Z,204.70
2019-04-14T19:28:11.353Z,226.12
2019-04-14T19:32:16.064Z,345.27
2019-04-14T19:36:20.886Z,393.07
2019-04-14T19:40:25.643Z,465.17
2019-04-14T19:44:30.529Z,317.90
2019-04-14T19:48:35.263Z,116.42
2019-04-14T19:52:39.882Z,118.65
2019-04-14T19:56:44.565Z,73.52
2019-04-14T20:00:53.060Z,185.07
2019-04-14T20:04:57.918Z,63.20
2019-04-14T20:09:02.700Z,96.80
2019-04-14T20:13:09.093Z,125.67
2019-04-14T20:17:33.094Z,64.00
2019-04-14T20:21:56.137Z,77.03
2019-04-14T20:26:35.669Z,78.25
2019-04-14T20:30:44.338Z,56.95
2019-04-14T20:34:49.222Z,48.75
2019-04-14T20:38:54.361Z,87.22
2019-04-14T20:42:59.058Z,122.47
2019-04-14T20:47:05.593Z,270.50
2019-04-14T20:51:10.305Z,135.00
2019-04-14T20:55:15.372Z,196.78
2019-04-14T20:59:20.293Z,142.60
2019-04-14T21:03:37.949Z,85.07
2019-04-14T21:08:01.100Z,99.90
2019-04-14T21:12:23.728Z,102.92
2019-04-14T21:16:37.862Z,139.65
2019-04-14T21:20:56.038Z,111.45
2019-04-14T21:25:13.314Z,77.42
2019-04-14T21:29:35.764Z,24.43
2019-04-14T21:33:47.956Z,31.07
2019-04-14T21:37:56.896Z,52.83
2019-04-14T21:42:01.597Z,29.07
2019-04-14T21:46:06.418Z,37.30
2019-04-14T21:50:11.905Z,33.20
2019-04-14T21:54:17.428Z,29.67
2019-04-14T21:58:31.196Z,35.08
2019-04-14T22:03:03.633Z,24.23
2019-04-14T22:07:26.433Z,23.32
2019-04-14T22:11:31.688Z,26.42
2019-04-14T22:15:36.450Z,24.67
2019-04-14T22:19:41.158Z,158.10
2019-04-14T22:23:59.919Z,68.10
2019-04-14T22:27:54.043Z,101.87
2019-04-14T22:31:58.915Z,64.95
2019-04-14T22:36:04.510Z,61.30
2019-04-14T22:40:11.065Z,34.48
2019-04-14T22:44:15.738Z,132.22
2019-04-14T22:48:21.382Z,92.25
2019-04-14T22:52:26.854Z,42.13
2019-04-14T22:56:39.291Z,33.78
2019-04-14T23:00:46.168Z,34.33
2019-04-14T23:05:06.200Z,81.28
2019-04-14T23:09:24.492Z,34.80
2019-04-14T23:14:00.871Z,62.62
2019-04-14T23:18:28.947Z,90.20
2019-04-14T23:22:50.023Z,193.68
2019-04-14T23:26:54.739Z,14.87
2019-04-14T23:31:01.655Z,14.53
2019-04-14T23:35:06.329Z,13.80
2019-04-14T23:39:12.589Z,16.82
2019-04-14T23:43:17.169Z,13.05
2019-04-14T23:47:21.743Z,11.18
2019-04-14T23:51:26.614Z,10.28
2019-04-14T23:55:31.553Z,14.75
2019-04-14T23:59:36.165Z,16.75
